createdAt,value
2023-05-19T00:00:51.383Z,100295.41
2023-05-19T00:01:53.421Z,100291.06
2023-05-19T00:02:55.326Z,100279.47
2023-05-19T00:03:57.975Z,100278.94
2023-05-19T00:05:01.370Z,100271.72
2023-05-19T00:06:03.032Z,100281.75
2023-05-19T00:07:04.813Z,100276.63
2023-05-19T00:08:06.602Z,100294.44
2023-05-19T00:09:09.472Z,100291.72
2023-05-19T00:10:11.728Z,100254.53
2023-05-19T00:11:13.302Z,100295.31
2023-05-19T00:12:15.355Z,100273.78
2023-05-19T00:13:17.157Z,100289.94
2023-05-19T00:14:18.988Z,100287.41
2023-05-19T00:15:20.908Z,100233.81
2023-05-19T00:16:23.722Z,100278.91
2023-05-19T00:17:25.742Z,100283.31
2023-05-19T00:18:27.484Z,100286.44
2023-05-19T00:19:29.235Z,100287.41
2023-05-19T00:20:31.014Z,100273.00
2023-05-19T00:21:32.808Z,100282.63
2023-05-19T00:22:34.529Z,100281.41
2023-05-19T00:23:36.186Z,100281.00
2023-05-19T00:24:37.819Z,100279.22
2023-05-19T00:25:39.535Z,100267.19
2023-05-19T00:26:41.253Z,100260.56
2023-05-19T00:27:43.040Z,100269.72
2023-05-19T00:28:44.698Z,100281.31
2023-05-19T00:29:46.355Z,100277.78
2023-05-19T00:30:48.029Z,100262.50
2023-05-19T00:31:49.755Z,100271.47
2023-05-19T00:32:51.530Z,100275.06
2023-05-19T00:33:53.313Z,100272.66
2023-05-19T00:34:55.039Z,100237.28
2023-05-19T00:35:56.714Z,100268.53
2023-05-19T00:36:58.366Z,100268.41
2023-05-19T00:38:00.171Z,100276.28
2023-05-19T00:39:01.834Z,100273.00
2023-05-19T00:40:03.708Z,100268.34
2023-05-19T00:41:05.606Z,100259.88
2023-05-19T00:42:07.562Z,100272.59
2023-05-19T00:43:09.224Z,100235.44
2023-05-19T00:44:10.905Z,100273.56
2023-05-19T00:45:12.577Z,100247.22
2023-05-19T00:46:14.277Z,100287.84
2023-05-19T00:47:16.012Z,100254.19
2023-05-19T00:48:17.832Z,100281.28
2023-05-19T00:49:19.546Z,100257.84
2023-05-19T00:50:21.222Z,100279.81
2023-05-19T00:51:23.902Z,100258.25
2023-05-19T00:52:26.277Z,100247.56
2023-05-19T00:53:27.939Z,100264.41
2023-05-19T00:54:29.620Z,100235.97
2023-05-19T00:55:31.462Z,100249.53
2023-05-19T00:56:33.849Z,100265.56
2023-05-19T00:57:35.616Z,100249.72
2023-05-19T00:58:37.288Z,100260.22
2023-05-19T00:59:39.064Z,100203.56
2023-05-19T01:00:40.785Z,100248.88
2023-05-19T01:01:42.626Z,100264.06
2023-05-19T01:02:44.434Z,100266.44
2023-05-19T01:03:46.286Z,100236.50
2023-05-19T01:04:48.045Z,100249.63
2023-05-19T01:05:49.714Z,100266.03
2023-05-19T01:06:51.373Z,100268.56
2023-05-19T01:07:53.216Z,100267.75
2023-05-19T01:08:54.874Z,100272.78
2023-05-19T01:09:56.547Z,100264.69
2023-05-19T01:10:58.393Z,100269.94
2023-05-19T01:12:00.830Z,100260.22
2023-05-19T01:13:05.678Z,100228.44
2023-05-19T01:14:07.367Z,100256.72
2023-05-19T01:15:09.442Z,100237.28
2023-05-19T01:16:27.071Z,100254.22
2023-05-19T01:17:37.502Z,100262.28
2023-05-19T01:18:48.894Z,100252.16
2023-05-19T01:19:57.495Z,100264.47
2023-05-19T01:21:16.717Z,100264.94
2023-05-19T01:22:36.801Z,100270.38
2023-05-19T01:24:07.008Z,100231.47
2023-05-19T01:25:25.036Z,100265.38
2023-05-19T01:26:40.280Z,100272.34
2023-05-19T01:27:56.212Z,100237.63
2023-05-19T01:29:28.429Z,100267.56
2023-05-19T01:30:35.442Z,100248.53
2023-05-19T01:31:37.794Z,100246.13
2023-05-19T01:32:41.715Z,100248.09
2023-05-19T01:33:43.813Z,100221.66
2023-05-19T01:34:45.490Z,100235.00
2023-05-19T01:35:47.159Z,100252.44
2023-05-19T01:36:48.882Z,100254.13
2023-05-19T01:37:52.278Z,100236.44
2023-05-19T01:38:55.998Z,100235.44
2023-05-19T01:39:58.349Z,100236.19
2023-05-19T01:41:00.060Z,100244.91
2023-05-19T01:42:01.863Z,100239.06
2023-05-19T01:43:03.561Z,100227.34
2023-05-19T01:44:06.427Z,100249.19
2023-05-19T01:45:08.557Z,100251.72
2023-05-19T01:46:10.239Z,100255.22
2023-05-19T01:47:11.968Z,100250.97
2023-05-19T01:48:13.730Z,100250.19
2023-05-19T01:49:15.419Z,100256.28
2023-05-19T01:50:19.695Z,100251.72
2023-05-19T01:51:21.390Z,100240.56
2023-05-19T01:52:23.904Z,100259.69
2023-05-19T01:53:25.763Z,100258.25
2023-05-19T01:54:28.163Z,100254.97
2023-05-19T01:55:29.828Z,100250.41
2023-05-19T01:56:41.812Z,100224.34
2023-05-19T01:58:01.985Z,100261.53
2023-05-19T01:59:07.341Z,100259.53
2023-05-19T02:00:34.715Z,100253.31
2023-05-19T02:01:47.686Z,100255.47
2023-05-19T02:03:07.638Z,100257.22
2023-05-19T02:04:29.538Z,100256.75
2023-05-19T02:05:41.330Z,100258.41
2023-05-19T02:06:46.604Z,100240.41
2023-05-19T02:07:52.455Z,100221.91
2023-05-19T02:09:09.048Z,100263.22
2023-05-19T02:10:21.848Z,100260.25
2023-05-19T02:11:27.500Z,100261.38
2023-05-19T02:12:33.061Z,100264.63
2023-05-19T02:13:37.659Z,100236.91
2023-05-19T02:14:41.785Z,100206.56
2023-05-19T02:15:43.620Z,100261.38
2023-05-19T02:16:46.139Z,100250.75
2023-05-19T02:17:48.018Z,100263.78
2023-05-19T02:18:50.013Z,100259.63
2023-05-19T02:19:51.712Z,100264.09
2023-05-19T02:20:53.405Z,100257.84
2023-05-19T02:21:55.118Z,100260.91
2023-05-19T02:22:56.820Z,100257.53
2023-05-19T02:23:58.673Z,100260.25
2023-05-19T02:25:00.400Z,100266.38
2023-05-19T02:26:02.195Z,100254.16
2023-05-19T02:27:04.030Z,100247.28
2023-05-19T02:28:05.713Z,100251.88
2023-05-19T02:29:07.427Z,100250.00
2023-05-19T02:30:09.657Z,100244.53
2023-05-19T02:31:11.813Z,100268.13
2023-05-19T02:32:13.541Z,100268.66
2023-05-19T02:33:15.423Z,100240.06
2023-05-19T02:34:18.149Z,100246.16
2023-05-19T02:35:20.715Z,100248.78
2023-05-19T02:36:22.382Z,100255.00
2023-05-19T02:37:24.068Z,100258.03
2023-05-19T02:38:25.771Z,100236.91
2023-05-19T02:39:27.910Z,100254.38
2023-05-19T02:40:29.750Z,100255.63
2023-05-19T02:41:31.623Z,100260.00
2023-05-19T02:42:33.354Z,100255.09
2023-05-19T02:43:35.185Z,100248.22
2023-05-19T02:44:36.963Z,100237.28
2023-05-19T02:45:38.687Z,100239.16
2023-05-19T02:46:40.434Z,100216.44
2023-05-19T02:47:42.221Z,100237.06
2023-05-19T02:48:43.924Z,100247.78
2023-05-19T02:49:45.688Z,100250.41
2023-05-19T02:50:47.346Z,100243.84
2023-05-19T02:51:49.032Z,100247.19
2023-05-19T02:52:50.702Z,100219.66
2023-05-19T02:53:52.358Z,100247.25
2023-05-19T02:54:54.030Z,100248.69
2023-05-19T02:55:55.713Z,100250.97
2023-05-19T02:56:57.529Z,100212.75
2023-05-19T02:57:59.220Z,100244.44
2023-05-19T02:59:00.894Z,100235.16
2023-05-19T03:00:02.577Z,100210.06
2023-05-19T03:01:04.275Z,100237.94
2023-05-19T03:02:06.157Z,100249.97
2023-05-19T03:03:07.961Z,100256.00
2023-05-19T03:04:09.797Z,100241.81
2023-05-19T03:05:11.681Z,100237.63
2023-05-19T03:06:13.341Z,100234.31
2023-05-19T03:07:14.983Z,100258.47
2023-05-19T03:08:17.352Z,100261.88
2023-05-19T03:09:19.105Z,100219.88
2023-05-19T03:10:20.763Z,100244.88
2023-05-19T03:11:23.527Z,100260.19
2023-05-19T03:12:25.390Z,100254.72
2023-05-19T03:13:27.219Z,100240.34
2023-05-19T03:14:28.953Z,100238.19
2023-05-19T03:15:30.636Z,100233.47
2023-05-19T03:16:32.420Z,100247.16
2023-05-19T03:17:34.360Z,100242.91
2023-05-19T03:18:36.406Z,100257.06
2023-05-19T03:19:38.245Z,100255.50
2023-05-19T03:20:41.660Z,100250.28
2023-05-19T03:21:43.517Z,100242.50
2023-05-19T03:22:45.230Z,100220.31
2023-05-19T03:23:46.911Z,100230.91
2023-05-19T03:24:48.551Z,100252.13
2023-05-19T03:25:50.339Z,100243.59
2023-05-19T03:26:52.034Z,100246.28
2023-05-19T03:27:53.987Z,100255.47
2023-05-19T03:28:55.826Z,100241.22
2023-05-19T03:29:57.538Z,100260.94
2023-05-19T03:30:59.369Z,100240.91
2023-05-19T03:32:05.006Z,100237.97
2023-05-19T03:33:06.802Z,100234.81
2023-05-19T03:34:08.646Z,100260.75
2023-05-19T03:35:10.515Z,100254.97
2023-05-19T03:36:12.226Z,100216.38
2023-05-19T03:37:14.336Z,100252.75
2023-05-19T03:38:16.070Z,100214.59
2023-05-19T03:39:25.226Z,100246.28
2023-05-19T03:40:27.198Z,100238.88
2023-05-19T03:41:35.732Z,100228.63
2023-05-19T03:42:37.681Z,100247.66
2023-05-19T03:43:40.068Z,100224.34
2023-05-19T03:44:42.770Z,100261.78
2023-05-19T03:45:44.875Z,100249.00
2023-05-19T03:47:12.984Z,100253.31
2023-05-19T03:48:33.074Z,100245.97
2023-05-19T03:50:00.896Z,100252.25
2023-05-19T03:51:25.892Z,100239.38
2023-05-19T03:52:30.893Z,100228.13
2023-05-19T03:53:48.748Z,100251.25
2023-05-19T03:54:50.438Z,100252.59
2023-05-19T03:55:54.363Z,100251.38
2023-05-19T03:56:58.842Z,100225.16
2023-05-19T03:58:00.500Z,100243.38
2023-05-19T03:59:02.166Z,100194.78
2023-05-19T04:00:05.028Z,100228.44
2023-05-19T04:01:13.827Z,100210.16
2023-05-19T04:02:16.617Z,100248.97
2023-05-19T04:03:18.635Z,100243.72
2023-05-19T04:04:20.439Z,100242.13
2023-05-19T04:05:22.147Z,100254.59
2023-05-19T04:06:23.811Z,100248.03
2023-05-19T04:07:25.454Z,100251.63
2023-05-19T04:08:27.120Z,100249.53
2023-05-19T04:09:28.770Z,100211.47
2023-05-19T04:10:30.703Z,100257.25
2023-05-19T04:11:32.540Z,100217.88
2023-05-19T04:12:34.194Z,100252.09
2023-05-19T04:13:35.939Z,100253.59
2023-05-19T04:14:37.593Z,100245.38
2023-05-19T04:15:39.329Z,100250.50
2023-05-19T04:16:41.030Z,100266.47
2023-05-19T04:17:43.669Z,100240.53
2023-05-19T04:18:45.390Z,100267.34
2023-05-19T04:19:47.140Z,100246.94
2023-05-19T04:20:48.812Z,100263.31
2023-05-19T04:21:50.579Z,100246.28
2023-05-19T04:22:52.401Z,100236.75
2023-05-19T04:23:54.048Z,100260.84
2023-05-19T04:24:55.972Z,100251.59
2023-05-19T04:25:58.462Z,100249.50
2023-05-19T04:27:00.132Z,100233.13
2023-05-19T04:28:01.906Z,100250.06
2023-05-19T04:29:04.687Z,100252.03
2023-05-19T04:30:07.842Z,100226.59
2023-05-19T04:31:12.828Z,100245.06
2023-05-19T04:32:14.546Z,100254.34
2023-05-19T04:33:16.265Z,100252.44
2023-05-19T04:34:18.311Z,100228.44
2023-05-19T04:35:19.998Z,100217.81
2023-05-19T04:36:22.576Z,100243.34
2023-05-19T04:37:26.695Z,100213.50
2023-05-19T04:38:28.935Z,100248.16
2023-05-19T04:39:30.855Z,100255.47
2023-05-19T04:40:32.689Z,100227.25
2023-05-19T04:41:34.722Z,100254.78
2023-05-19T04:42:38.506Z,100255.59
2023-05-19T04:43:40.204Z,100250.13
2023-05-19T04:44:41.965Z,100258.69
2023-05-19T04:45:43.676Z,100256.81
2023-05-19T04:46:46.721Z,100198.47
2023-05-19T04:47:48.749Z,100246.34
2023-05-19T04:48:50.560Z,100243.28
2023-05-19T04:49:52.195Z,100252.56
2023-05-19T04:50:53.867Z,100241.44
2023-05-19T04:51:55.994Z,100244.72
2023-05-19T04:53:01.536Z,100250.94
2023-05-19T04:54:03.596Z,100249.50
2023-05-19T04:55:05.716Z,100230.72
2023-05-19T04:56:07.625Z,100243.94
2023-05-19T04:57:09.553Z,100247.09
2023-05-19T04:58:13.493Z,100228.31
2023-05-19T04:59:15.207Z,100229.00
2023-05-19T05:00:17.362Z,100245.38
2023-05-19T05:01:29.058Z,100238.25
2023-05-19T05:02:30.872Z,100232.59
2023-05-19T05:03:32.680Z,100249.94
2023-05-19T05:04:34.456Z,100231.84
2023-05-19T05:05:36.162Z,100237.28
2023-05-19T05:06:37.836Z,100245.72
2023-05-19T05:07:40.943Z,100251.69
2023-05-19T05:08:43.043Z,100241.66
2023-05-19T05:09:44.766Z,100252.34
2023-05-19T05:10:46.891Z,100251.38
2023-05-19T05:11:48.787Z,100246.25
2023-05-19T05:12:50.672Z,100247.00
2023-05-19T05:13:52.640Z,100226.69
2023-05-19T05:14:54.519Z,100249.97
2023-05-19T05:15:56.466Z,100254.13
2023-05-19T05:16:58.441Z,100262.63
2023-05-19T05:18:01.085Z,100132.22
2023-05-19T05:19:03.092Z,100213.91
2023-05-19T05:20:05.570Z,100248.63
2023-05-19T05:21:07.302Z,100242.59
2023-05-19T05:22:10.171Z,100224.38
2023-05-19T05:23:14.866Z,100236.59
2023-05-19T05:24:18.515Z,100220.88
2023-05-19T05:25:25.457Z,100210.28
2023-05-19T05:26:29.989Z,100247.25
2023-05-19T05:27:31.817Z,100231.38
2023-05-19T05:28:33.577Z,100246.56
2023-05-19T05:29:35.302Z,100255.41
2023-05-19T05:30:38.768Z,100247.69
2023-05-19T05:31:41.979Z,100255.72
2023-05-19T05:32:43.850Z,100251.78
2023-05-19T05:33:58.525Z,100195.94
2023-05-19T05:35:03.571Z,100241.03
2023-05-19T05:36:06.626Z,100244.13
2023-05-19T05:37:08.812Z,100247.03
2023-05-19T05:38:10.877Z,100244.13
2023-05-19T05:39:13.011Z,100227.06
2023-05-19T05:40:16.056Z,100251.06
2023-05-19T05:41:17.745Z,100241.47
2023-05-19T05:42:19.764Z,100247.09
2023-05-19T05:43:21.611Z,100250.59
2023-05-19T05:44:28.738Z,100206.50
2023-05-19T05:45:31.039Z,100233.31
2023-05-19T05:46:35.202Z,100237.78
2023-05-19T05:47:36.936Z,100236.75
2023-05-19T05:48:39.561Z,100221.78
2023-05-19T05:49:42.024Z,100233.03
2023-05-19T05:50:45.310Z,100227.53
2023-05-19T05:52:04.427Z,100235.09
2023-05-19T05:53:10.241Z,100242.94
2023-05-19T05:54:14.356Z,100240.91
2023-05-19T05:55:20.222Z,100218.97
2023-05-19T05:56:22.808Z,100244.03
2023-05-19T05:57:27.423Z,100248.38
2023-05-19T05:58:29.101Z,100224.81
2023-05-19T05:59:30.809Z,100240.25
2023-05-19T06:00:32.664Z,100227.13
2023-05-19T06:01:35.585Z,100245.88
2023-05-19T06:02:39.552Z,100229.16
2023-05-19T06:03:42.375Z,100237.22
2023-05-19T06:04:44.914Z,100237.88
2023-05-19T06:05:46.614Z,100240.16
2023-05-19T06:06:48.352Z,100237.78
2023-05-19T06:07:57.278Z,100224.41
2023-05-19T06:09:01.285Z,100240.06
2023-05-19T06:10:03.955Z,100231.88
2023-05-19T06:11:05.693Z,100227.38
2023-05-19T06:12:07.579Z,100216.84
2023-05-19T06:13:14.733Z,100232.66
2023-05-19T06:14:19.077Z,100207.91
2023-05-19T06:15:47.060Z,100191.84
2023-05-19T06:16:56.158Z,100237.19
2023-05-19T06:17:57.898Z,100228.00
2023-05-19T06:18:59.612Z,100232.50
2023-05-19T06:20:04.393Z,100255.34
2023-05-19T06:21:06.176Z,100240.34
2023-05-19T06:22:07.957Z,100246.88
2023-05-19T06:23:09.647Z,100215.81
2023-05-19T06:24:11.522Z,100244.69
2023-05-19T06:25:13.323Z,100233.31
2023-05-19T06:26:15.137Z,100238.97
2023-05-19T06:27:16.800Z,100206.78
2023-05-19T06:28:18.530Z,100247.84
2023-05-19T06:29:20.220Z,100247.09
2023-05-19T06:30:23.298Z,100248.47
2023-05-19T06:31:37.085Z,100257.72
2023-05-19T06:32:45.457Z,100252.47
2023-05-19T06:33:47.234Z,100246.50
2023-05-19T06:34:50.690Z,100253.25
2023-05-19T06:35:52.371Z,100249.88
2023-05-19T06:36:55.199Z,100246.13
2023-05-19T06:37:57.217Z,100237.75
2023-05-19T06:39:01.222Z,100233.88
2023-05-19T06:40:05.245Z,100231.25
2023-05-19T06:41:06.927Z,100216.28
2023-05-19T06:42:08.967Z,100235.56
2023-05-19T06:43:30.829Z,100226.16
2023-05-19T06:44:37.474Z,100252.28
2023-05-19T06:45:40.550Z,100236.69
2023-05-19T06:46:42.485Z,100247.69
2023-05-19T06:47:44.219Z,100230.16
2023-05-19T06:48:46.364Z,100237.28
2023-05-19T06:49:48.144Z,100230.25
2023-05-19T06:50:49.918Z,100239.69
2023-05-19T06:51:51.776Z,100232.53
2023-05-19T06:52:53.478Z,100236.59
2023-05-19T06:53:55.233Z,100234.88
2023-05-19T06:54:58.089Z,100242.66
2023-05-19T06:56:00.484Z,100213.09
2023-05-19T06:57:08.226Z,100239.59
2023-05-19T06:58:09.917Z,100237.84
2023-05-19T06:59:11.731Z,100219.69
2023-05-19T07:00:16.093Z,100222.63
2023-05-19T07:01:22.413Z,100231.09
2023-05-19T07:02:29.001Z,100204.94
2023-05-19T07:03:30.893Z,100230.31
2023-05-19T07:04:32.920Z,100243.53
2023-05-19T07:05:34.993Z,100242.66
2023-05-19T07:06:36.735Z,100259.13
2023-05-19T07:07:38.420Z,100249.16
2023-05-19T07:08:43.429Z,100263.41
2023-05-19T07:09:46.780Z,100289.00
2023-05-19T07:10:48.519Z,100298.72
2023-05-19T07:11:51.696Z,100319.38
2023-05-19T07:12:53.377Z,100271.84
2023-05-19T07:13:57.609Z,100312.53
2023-05-19T07:15:02.852Z,100297.94
2023-05-19T07:16:04.738Z,100317.09
2023-05-19T07:17:06.461Z,100277.06
2023-05-19T07:18:10.624Z,100298.75
2023-05-19T07:19:12.321Z,100287.91
2023-05-19T07:20:14.144Z,100299.34
2023-05-19T07:21:15.872Z,100304.78
2023-05-19T07:22:17.591Z,100276.84
2023-05-19T07:23:19.614Z,100277.63
2023-05-19T07:24:22.015Z,100266.31
2023-05-19T07:25:23.797Z,100251.09
2023-05-19T07:26:25.616Z,100259.44
2023-05-19T07:27:27.271Z,100252.38
2023-05-19T07:28:28.952Z,100250.53
2023-05-19T07:29:30.651Z,100238.88
2023-05-19T07:30:32.472Z,100268.84
2023-05-19T07:31:34.383Z,100228.63
2023-05-19T07:32:36.123Z,100230.94
2023-05-19T07:33:37.858Z,100236.72
2023-05-19T07:34:40.386Z,100240.03
2023-05-19T07:35:42.050Z,100224.75
2023-05-19T07:36:43.739Z,100226.44
2023-05-19T07:37:45.398Z,100226.31
2023-05-19T07:38:47.165Z,100235.94
2023-05-19T07:39:48.855Z,100234.22
2023-05-19T07:40:50.509Z,100237.34
2023-05-19T07:41:52.200Z,100242.22
2023-05-19T07:42:53.855Z,100245.25
2023-05-19T07:43:55.511Z,100233.28
2023-05-19T07:44:57.158Z,100247.94
2023-05-19T07:45:58.852Z,100250.16
2023-05-19T07:47:00.992Z,100254.09
2023-05-19T07:48:05.612Z,100252.91
2023-05-19T07:49:07.268Z,100255.72
2023-05-19T07:50:09.059Z,100255.34
2023-05-19T07:51:11.928Z,100248.59
2023-05-19T07:52:13.595Z,100248.22
2023-05-19T07:53:15.474Z,100244.00
2023-05-19T07:54:17.197Z,100233.84
2023-05-19T07:55:18.870Z,100262.66
2023-05-19T07:56:20.553Z,100235.28
2023-05-19T07:57:22.218Z,100260.53
2023-05-19T07:58:23.888Z,100271.50
2023-05-19T07:59:25.559Z,100260.16
2023-05-19T08:00:27.228Z,100275.09
2023-05-19T08:01:30.033Z,100275.19
2023-05-19T08:02:31.784Z,100281.00
2023-05-19T08:03:33.580Z,100285.00
2023-05-19T08:04:35.368Z,100280.81
2023-05-19T08:05:37.046Z,100277.34
2023-05-19T08:06:38.748Z,100252.56
2023-05-19T08:07:40.405Z,100288.84
2023-05-19T08:08:42.035Z,100250.09
2023-05-19T08:09:43.707Z,100265.22
2023-05-19T08:10:46.136Z,100250.69
2023-05-19T08:11:47.867Z,100268.34
2023-05-19T08:12:49.538Z,100273.19
2023-05-19T08:13:51.194Z,100283.28
2023-05-19T08:14:52.883Z,100270.94
2023-05-19T08:15:54.621Z,100281.50
2023-05-19T08:16:56.379Z,100284.16
2023-05-19T08:17:58.060Z,100299.69
2023-05-19T08:18:59.768Z,100274.41
2023-05-19T08:20:01.444Z,100263.81
2023-05-19T08:21:03.175Z,100244.06
2023-05-19T08:22:05.032Z,100260.69
2023-05-19T08:23:06.783Z,100270.81
2023-05-19T08:24:08.888Z,100282.94
2023-05-19T08:25:10.556Z,100280.72
2023-05-19T08:26:12.202Z,100257.97
2023-05-19T08:27:14.004Z,100265.63
2023-05-19T08:28:15.660Z,100262.41
2023-05-19T08:29:17.311Z,100259.03
2023-05-19T08:30:18.984Z,100271.47
2023-05-19T08:31:20.784Z,100252.09
2023-05-19T08:32:22.617Z,100247.75
2023-05-19T08:33:24.320Z,100263.41
2023-05-19T08:34:26.006Z,100241.63
2023-05-19T08:35:27.706Z,100259.13
2023-05-19T08:36:29.360Z,100256.63
2023-05-19T08:37:32.648Z,100217.22
2023-05-19T08:38:35.722Z,100236.84
2023-05-19T08:39:37.398Z,100247.16
2023-05-19T08:40:41.413Z,100242.47
2023-05-19T08:41:43.065Z,100261.50
2023-05-19T08:42:47.721Z,100235.75
2023-05-19T08:43:49.392Z,100257.03
2023-05-19T08:44:51.048Z,100256.81
2023-05-19T08:45:52.710Z,100226.56
2023-05-19T08:46:57.356Z,100256.50
2023-05-19T08:47:59.176Z,100251.69
2023-05-19T08:49:04.809Z,100235.44
2023-05-19T08:50:07.417Z,100217.66
2023-05-19T08:51:15.028Z,100215.41
2023-05-19T08:52:31.469Z,100212.75
2023-05-19T08:53:36.959Z,100207.44
2023-05-19T08:54:45.965Z,100204.78
2023-05-19T08:55:50.920Z,100211.97
2023-05-19T08:56:52.579Z,100230.53
2023-05-19T08:57:54.270Z,100205.94
2023-05-19T08:58:55.940Z,100199.25
2023-05-19T08:59:57.615Z,100227.22
2023-05-19T09:00:59.374Z,100189.84
2023-05-19T09:02:01.040Z,100213.41
2023-05-19T09:03:17.581Z,100217.44
2023-05-19T09:04:19.778Z,100229.03
2023-05-19T09:05:21.611Z,100221.47
2023-05-19T09:06:23.299Z,100226.66
2023-05-19T09:07:24.998Z,100225.34
2023-05-19T09:08:26.695Z,100244.72
2023-05-19T09:09:28.979Z,100257.09
2023-05-19T09:10:30.643Z,100247.91
2023-05-19T09:11:32.738Z,100244.97
2023-05-19T09:12:34.412Z,100232.25
2023-05-19T09:13:36.178Z,100233.41
2023-05-19T09:14:38.200Z,100215.56
2023-05-19T09:15:39.852Z,100204.06
2023-05-19T09:16:41.569Z,100225.38
2023-05-19T09:17:43.273Z,100225.47
2023-05-19T09:18:55.005Z,100214.50
2023-05-19T09:19:56.787Z,100222.94
2023-05-19T09:20:59.441Z,100223.72
2023-05-19T09:22:01.530Z,100213.91
2023-05-19T09:23:02.984Z,100234.00
2023-05-19T09:24:04.926Z,100229.44
2023-05-19T09:25:06.602Z,100199.09
2023-05-19T09:26:08.203Z,100218.06
2023-05-19T09:27:09.739Z,100190.03
2023-05-19T09:28:11.210Z,100193.84
2023-05-19T09:29:16.003Z,100219.22
2023-05-19T09:30:17.501Z,100215.41
2023-05-19T09:31:18.933Z,100205.13
2023-05-19T09:32:26.363Z,100202.88
2023-05-19T09:33:28.290Z,100200.22
2023-05-19T09:34:29.734Z,100185.84
2023-05-19T09:35:31.301Z,100194.22
2023-05-19T09:36:32.873Z,100205.94
2023-05-19T09:37:34.328Z,100208.19
2023-05-19T09:38:36.331Z,100217.31
2023-05-19T09:39:38.410Z,100216.97
2023-05-19T09:40:40.065Z,100196.88
2023-05-19T09:41:41.512Z,100207.09
2023-05-19T09:42:42.957Z,100211.28
2023-05-19T09:43:44.415Z,100211.19
2023-05-19T09:44:45.873Z,100213.44
2023-05-19T09:45:47.316Z,100205.44
2023-05-19T09:46:51.855Z,100190.63
2023-05-19T09:47:53.389Z,100197.44
2023-05-19T09:48:57.985Z,100206.13
2023-05-19T09:49:59.478Z,100188.97
2023-05-19T09:51:01.222Z,100214.72
2023-05-19T09:52:03.175Z,100197.22
2023-05-19T09:53:04.646Z,100180.94
2023-05-19T09:54:06.130Z,100180.19
2023-05-19T09:55:11.290Z,100199.84
2023-05-19T09:56:12.758Z,100169.06
2023-05-19T09:57:14.207Z,100173.25
2023-05-19T09:58:18.761Z,100175.06
2023-05-19T09:59:20.218Z,100172.41
2023-05-19T10:00:21.702Z,100190.56
2023-05-19T10:01:23.277Z,100167.34
2023-05-19T10:02:24.773Z,100162.13
2023-05-19T10:03:26.227Z,100166.59
2023-05-19T10:04:28.208Z,100170.34
2023-05-19T10:05:29.683Z,100166.84
2023-05-19T10:06:31.144Z,100170.53
2023-05-19T10:07:32.640Z,100168.69
2023-05-19T10:08:34.110Z,100167.97
2023-05-19T10:09:35.701Z,100170.34
2023-05-19T10:10:37.421Z,100175.69
2023-05-19T10:11:38.882Z,100161.94
2023-05-19T10:12:40.487Z,100175.72
2023-05-19T10:13:41.927Z,100176.03
2023-05-19T10:14:43.418Z,100179.47
2023-05-19T10:15:57.061Z,100176.84
2023-05-19T10:17:00.100Z,100182.88
2023-05-19T10:18:01.743Z,100187.63
2023-05-19T10:19:03.360Z,100175.38
2023-05-19T10:20:05.487Z,100166.50
2023-05-19T10:21:07.674Z,100168.44
2023-05-19T10:22:09.144Z,100164.97
2023-05-19T10:23:10.590Z,100172.50
2023-05-19T10:24:13.305Z,100184.91
2023-05-19T10:25:14.920Z,100183.66
2023-05-19T10:26:16.365Z,100180.06
2023-05-19T10:27:17.834Z,100158.81
2023-05-19T10:28:19.276Z,100160.34
2023-05-19T10:29:22.088Z,100151.16
2023-05-19T10:30:30.516Z,100167.47
2023-05-19T10:31:32.022Z,100158.69
2023-05-19T10:32:33.709Z,100172.97
2023-05-19T10:33:41.857Z,100158.00
2023-05-19T10:34:45.957Z,100163.19
2023-05-19T10:35:57.800Z,100168.34
2023-05-19T10:37:12.893Z,100161.88
2023-05-19T10:38:14.420Z,100166.72
2023-05-19T10:39:21.832Z,100157.50
2023-05-19T10:40:49.444Z,100163.16
2023-05-19T10:42:06.029Z,100162.31
2023-05-19T10:43:10.221Z,100154.34
2023-05-19T10:44:30.253Z,100135.75
2023-05-19T10:45:32.631Z,100132.38
2023-05-19T10:46:34.265Z,100136.50
2023-05-19T10:47:35.762Z,100135.91
2023-05-19T10:48:37.278Z,100142.78
2023-05-19T10:49:38.768Z,100159.00
2023-05-19T10:50:40.332Z,100154.84
2023-05-19T10:51:41.833Z,100153.63
2023-05-19T10:52:43.278Z,100156.41
2023-05-19T10:53:44.729Z,100148.13
2023-05-19T10:54:46.254Z,100150.31
2023-05-19T10:55:54.331Z,100146.94
2023-05-19T10:56:56.491Z,100165.50
2023-05-19T10:57:57.939Z,100139.38
2023-05-19T10:58:59.443Z,100155.66
2023-05-19T11:00:04.682Z,100158.03
2023-05-19T11:01:09.397Z,100169.34
2023-05-19T11:02:11.270Z,100179.44
2023-05-19T11:03:13.005Z,100176.56
2023-05-19T11:04:14.546Z,100183.22
2023-05-19T11:05:16.099Z,100163.31
2023-05-19T11:06:26.821Z,100169.28
2023-05-19T11:07:28.304Z,100164.53
2023-05-19T11:08:32.828Z,100161.00
2023-05-19T11:09:40.408Z,100162.47
2023-05-19T11:10:45.145Z,100157.63
2023-05-19T11:11:47.293Z,100164.44
2023-05-19T11:12:48.759Z,100147.25
2023-05-19T11:13:50.604Z,100141.84
2023-05-19T11:14:52.356Z,100159.28
2023-05-19T11:15:53.839Z,100157.69
2023-05-19T11:16:58.404Z,100151.94
2023-05-19T11:17:59.908Z,100133.19
2023-05-19T11:19:01.372Z,100149.75
2023-05-19T11:20:02.825Z,100160.63
2023-05-19T11:21:04.356Z,100164.63
2023-05-19T11:22:09.234Z,100141.81
2023-05-19T11:23:15.193Z,100136.94
2023-05-19T11:24:35.551Z,100136.59
2023-05-19T11:25:43.357Z,100133.63
2023-05-19T11:26:44.857Z,100135.72
2023-05-19T11:27:46.331Z,100131.59
2023-05-19T11:28:47.795Z,100132.72
2023-05-19T11:29:49.381Z,100147.69
2023-05-19T11:30:50.929Z,100130.03
2023-05-19T11:31:52.487Z,100121.91
2023-05-19T11:32:54.019Z,100130.44
2023-05-19T11:33:55.610Z,100136.78
2023-05-19T11:34:57.219Z,100132.34
2023-05-19T11:35:58.856Z,100146.25
2023-05-19T11:37:00.345Z,100143.28
2023-05-19T11:38:01.919Z,100135.16
2023-05-19T11:39:03.380Z,100138.34
2023-05-19T11:40:05.126Z,100110.47
2023-05-19T11:41:06.594Z,100133.41
2023-05-19T11:42:11.037Z,100125.59
2023-05-19T11:43:12.497Z,100122.50
2023-05-19T11:44:13.966Z,100103.47
2023-05-19T11:45:15.457Z,100096.59
2023-05-19T11:46:16.972Z,100111.19
2023-05-19T11:47:18.439Z,100123.09
2023-05-19T11:48:23.000Z,100113.69
2023-05-19T11:49:24.466Z,100105.00
2023-05-19T11:50:25.969Z,100110.63
2023-05-19T11:51:27.494Z,100124.84
2023-05-19T11:52:28.972Z,100128.41
2023-05-19T11:53:30.733Z,100119.47
2023-05-19T11:54:33.285Z,100107.13
2023-05-19T11:55:35.438Z,100129.06
2023-05-19T11:56:43.565Z,100101.03
2023-05-19T11:58:02.852Z,100110.03
2023-05-19T11:59:05.197Z,100103.59
2023-05-19T12:00:08.694Z,100093.88
2023-05-19T12:01:10.391Z,100090.19
2023-05-19T12:02:22.335Z,100063.22
2023-05-19T12:03:24.122Z,100069.44